sensor_id;sensor_type;location;lat;lon;timestamp;pressure;altitude;pressure_sealevel;temperature;humidity
69911;BME280;63555;49.920;17.868;2023-11-18T00:04:24;98853.84;;;3.46;91.88
69911;BME280;63555;49.920;17.868;2023-11-18T00:09:24;98863.91;;;3.35;91.91
69911;BME280;63555;49.920;17.868;2023-11-18T00:14:24;98862.34;;;3.31;92.29
69911;BME280;63555;49.920;17.868;2023-11-18T00:19:25;98864.19;;;3.29;92.85
69911;BME280;63555;49.920;17.868;2023-11-18T00:24:25;98863.19;;;3.31;93.41
69911;BME280;63555;49.920;17.868;2023-11-18T00:29:25;98869.13;;;3.35;93.49
69911;BME280;63555;49.920;17.868;2023-11-18T00:34:27;98873.34;;;3.37;93.58
69911;BME280;63555;49.920;17.868;2023-11-18T00:39:29;98882.72;;;3.41;93.82
69911;BME280;63555;49.920;17.868;2023-11-18T00:44:29;98884.28;;;3.45;93.82
69911;BME280;63555;49.920;17.868;2023-11-18T00:49:30;98889.38;;;3.48;93.83
69911;BME280;63555;49.920;17.868;2023-11-18T00:54:30;98885.72;;;3.53;94.11
69911;BME280;63555;49.920;17.868;2023-11-18T00:59:30;98887.47;;;3.52;93.39
69911;BME280;63555;49.920;17.868;2023-11-18T01:04:31;98879.91;;;3.46;92.03
69911;BME280;63555;49.920;17.868;2023-11-18T01:09:33;98886.38;;;3.37;92.26
69911;BME280;63555;49.920;17.868;2023-11-18T01:14:39;98889.19;;;3.33;92.47
69911;BME280;63555;49.920;17.868;2023-11-18T01:19:39;98888.41;;;3.31;92.85
69911;BME280;63555;49.920;17.868;2023-11-18T01:24:39;98888.34;;;3.32;93.65
69911;BME280;63555;49.920;17.868;2023-11-18T01:29:40;98877.00;;;3.33;93.53
69911;BME280;63555;49.920;17.868;2023-11-18T01:34:40;98889.97;;;3.35;93.43
69911;BME280;63555;49.920;17.868;2023-11-18T01:39:43;98893.50;;;3.34;93.24
69911;BME280;63555;49.920;17.868;2023-11-18T01:44:44;98884.84;;;3.13;93.25
69911;BME280;63555;49.920;17.868;2023-11-18T01:49:44;98891.44;;;3.01;93.43
69911;BME280;63555;49.920;17.868;2023-11-18T01:54:45;98897.75;;;2.96;93.56
69911;BME280;63555;49.920;17.868;2023-11-18T01:59:45;98896.00;;;2.96;93.74
69911;BME280;63555;49.920;17.868;2023-11-18T02:04:45;98894.91;;;3.02;93.82
69911;BME280;63555;49.920;17.868;2023-11-18T02:09:46;98907.59;;;3.09;93.68
69911;BME280;63555;49.920;17.868;2023-11-18T02:14:46;98899.50;;;3.15;93.87
69911;BME280;63555;49.920;17.868;2023-11-18T02:19:48;98901.72;;;3.25;93.70
69911;BME280;63555;49.920;17.868;2023-11-18T02:24:49;98896.38;;;3.28;93.64
69911;BME280;63555;49.920;17.868;2023-11-18T02:29:50;98889.38;;;3.28;93.40
69911;BME280;63555;49.920;17.868;2023-11-18T02:35:11;98886.72;;;3.30;93.10
69911;BME280;63555;49.920;17.868;2023-11-18T02:40:19;98879.03;;;3.27;92.96
69911;BME280;63555;49.920;17.868;2023-11-18T02:45:20;98890.44;;;3.24;92.75
69911;BME280;63555;49.920;17.868;2023-11-18T02:50:21;98892.34;;;3.20;93.12
69911;BME280;63555;49.920;17.868;2023-11-18T02:55:21;98895.72;;;3.23;93.59
69911;BME280;63555;49.920;17.868;2023-11-18T03:00:23;98907.78;;;3.25;93.67
69911;BME280;63555;49.920;17.868;2023-11-18T03:05:23;98908.69;;;3.24;93.33
69911;BME280;63555;49.920;17.868;2023-11-18T03:10:26;98919.09;;;3.24;93.62
69911;BME280;63555;49.920;17.868;2023-11-18T03:15:27;98927.78;;;3.25;93.54
69911;BME280;63555;49.920;17.868;2023-11-18T03:20:28;98925.22;;;3.23;93.44
69911;BME280;63555;49.920;17.868;2023-11-18T03:25:29;98928.94;;;3.17;93.65
69911;BME280;63555;49.920;17.868;2023-11-18T03:30:29;98935.78;;;3.20;93.44
69911;BME280;63555;49.920;17.868;2023-11-18T03:35:29;98932.13;;;3.24;93.20
69911;BME280;63555;49.920;17.868;2023-11-18T03:40:30;98944.97;;;3.29;93.42
69911;BME280;63555;49.920;17.868;2023-11-18T03:45:30;98935.25;;;3.32;92.76
69911;BME280;63555;49.920;17.868;2023-11-18T03:50:30;98942.28;;;3.30;92.32
69911;BME280;63555;49.920;17.868;2023-11-18T03:55:31;98937.94;;;3.31;92.15
69911;BME280;63555;49.920;17.868;2023-11-18T04:00:31;98946.53;;;3.33;91.62
69911;BME280;63555;49.920;17.868;2023-11-18T04:05:32;98950.88;;;3.32;91.64
69911;BME280;63555;49.920;17.868;2023-11-18T04:10:34;98956.81;;;3.36;91.60
69911;BME280;63555;49.920;17.868;2023-11-18T04:15:35;98951.47;;;3.39;91.56
69911;BME280;63555;49.920;17.868;2023-11-18T04:20:35;98959.22;;;3.40;91.29
69911;BME280;63555;49.920;17.868;2023-11-18T04:25:35;98959.22;;;3.40;91.13
69911;BME280;63555;49.920;17.868;2023-11-18T04:30:36;98965.22;;;3.42;90.61
69911;BME280;63555;49.920;17.868;2023-11-18T04:35:36;98959.16;;;3.42;90.34
69911;BME280;63555;49.920;17.868;2023-11-18T04:40:36;98968.75;;;3.41;90.09
69911;BME280;63555;49.920;17.868;2023-11-18T04:45:38;98964.44;;;3.40;89.99
69911;BME280;63555;49.920;17.868;2023-11-18T04:50:41;98974.41;;;3.31;89.46
69911;BME280;63555;49.920;17.868;2023-11-18T04:55:42;98975.91;;;3.16;89.73
69911;BME280;63555;49.920;17.868;2023-11-18T05:00:43;98984.91;;;3.09;89.91
69911;BME280;63555;49.920;17.868;2023-11-18T05:05:43;98991.22;;;3.03;90.16
69911;BME280;63555;49.920;17.868;2023-11-18T05:10:48;98995.56;;;3.03;89.85
69911;BME280;63555;49.920;17.868;2023-11-18T05:15:49;99003.38;;;3.03;90.16
69911;BME280;63555;49.920;17.868;2023-11-18T05:20:50;99009.44;;;3.03;90.22
69911;BME280;63555;49.920;17.868;2023-11-18T05:25:50;99002.41;;;3.05;90.21
69911;BME280;63555;49.920;17.868;2023-11-18T05:30:51;99004.16;;;3.05;90.00
69911;BME280;63555;49.920;17.868;2023-11-18T05:35:52;99006.06;;;3.01;90.05
69911;BME280;63555;49.920;17.868;2023-11-18T05:40:53;99002.66;;;2.99;90.05
69911;BME280;63555;49.920;17.868;2023-11-18T05:45:57;99014.06;;;2.97;89.93
69911;BME280;63555;49.920;17.868;2023-11-18T05:51:21;99016.91;;;2.91;90.02
69911;BME280;63555;49.920;17.868;2023-11-18T05:56:22;99022.19;;;2.89;90.14
69911;BME280;63555;49.920;17.868;2023-11-18T06:01:23;99015.66;;;2.79;89.32
69911;BME280;63555;49.920;17.868;2023-11-18T06:06:23;99032.50;;;2.70;89.20
69911;BME280;63555;49.920;17.868;2023-11-18T06:11:24;99034.59;;;2.61;89.46
69911;BME280;63555;49.920;17.868;2023-11-18T06:16:25;99046.25;;;2.50;89.25
69911;BME280;63555;49.920;17.868;2023-11-18T06:21:26;99051.63;;;2.46;90.03
69911;BME280;63555;49.920;17.868;2023-11-18T06:26:33;99061.13;;;2.47;90.28
69911;BME280;63555;49.920;17.868;2023-11-18T06:31:36;99071.19;;;2.56;90.63
69911;BME280;63555;49.920;17.868;2023-11-18T06:36:36;99074.88;;;2.74;90.55
69911;BME280;63555;49.920;17.868;2023-11-18T06:41:36;99077.00;;;2.86;89.78
69911;BME280;63555;49.920;17.868;2023-11-18T06:46:48;99087.19;;;2.92;89.44
69911;BME280;63555;49.920;17.868;2023-11-18T06:51:50;99086.88;;;3.00;89.41
69911;BME280;63555;49.920;17.868;2023-11-18T06:56:51;99090.94;;;3.07;89.24
69911;BME280;63555;49.920;17.868;2023-11-18T07:01:53;99098.97;;;3.23;89.94
69911;BME280;63555;49.920;17.868;2023-11-18T07:06:53;99115.75;;;3.37;89.63
69911;BME280;63555;49.920;17.868;2023-11-18T07:11:54;99113.66;;;3.47;89.78
69911;BME280;63555;49.920;17.868;2023-11-18T07:16:56;99119.31;;;3.57;89.52
69911;BME280;63555;49.920;17.868;2023-11-18T07:21:56;99117.50;;;3.59;89.31
69911;BME280;63555;49.920;17.868;2023-11-18T07:26:57;99123.38;;;3.64;89.43
69911;BME280;63555;49.920;17.868;2023-11-18T07:31:59;99127.53;;;3.68;89.50
69911;BME280;63555;49.920;17.868;2023-11-18T07:37:05;99132.50;;;3.74;89.46
69911;BME280;63555;49.920;17.868;2023-11-18T07:42:05;99134.66;;;3.84;89.47
69911;BME280;63555;49.920;17.868;2023-11-18T07:47:06;99140.53;;;3.90;89.45
69911;BME280;63555;49.920;17.868;2023-11-18T07:52:07;99142.16;;;3.92;89.09
69911;BME280;63555;49.920;17.868;2023-11-18T07:57:07;99142.28;;;3.89;88.98
69911;BME280;63555;49.920;17.868;2023-11-18T08:02:10;99139.75;;;3.88;89.03
69911;BME280;63555;49.920;17.868;2023-11-18T08:07:11;99150.13;;;3.89;89.27
69911;BME280;63555;49.920;17.868;2023-11-18T08:12:11;99142.16;;;3.92;90.06
69911;BME280;63555;49.920;17.868;2023-11-18T08:17:11;99148.88;;;3.98;89.15
69911;BME280;63555;49.920;17.868;2023-11-18T08:22:13;99156.84;;;3.95;89.35
69911;BME280;63555;49.920;17.868;2023-11-18T08:27:16;99172.03;;;3.85;88.63
69911;BME280;63555;49.920;17.868;2023-11-18T08:32:17;99173.97;;;3.80;89.68
69911;BME280;63555;49.920;17.868;2023-11-18T08:37:17;99192.50;;;3.94;89.85
69911;BME280;63555;49.920;17.868;2023-11-18T08:42:17;99183.72;;;3.97;89.11
69911;BME280;63555;49.920;17.868;2023-11-18T08:47:19;99194.88;;;4.00;88.96
69911;BME280;63555;49.920;17.868;2023-11-18T08:52:20;99202.75;;;3.99;88.84
69911;BME280;63555;49.920;17.868;2023-11-18T08:57:20;99204.13;;;4.07;89.76
69911;BME280;63555;49.920;17.868;2023-11-18T09:02:25;99203.53;;;4.01;88.71
69911;BME280;63555;49.920;17.868;2023-11-18T09:07:25;99224.78;;;3.92;88.70
69911;BME280;63555;49.920;17.868;2023-11-18T09:12:26;99222.31;;;3.89;89.07
69911;BME280;63555;49.920;17.868;2023-11-18T09:17:28;99229.47;;;3.83;88.85
69911;BME280;63555;49.920;17.868;2023-11-18T09:22:28;99226.03;;;3.83;89.36
69911;BME280;63555;49.920;17.868;2023-11-18T09:27:28;99236.09;;;3.92;89.62
69911;BME280;63555;49.920;17.868;2023-11-18T09:32:29;99236.94;;;3.93;88.87
69911;BME280;63555;49.920;17.868;2023-11-18T09:37:30;99236.94;;;3.93;89.23
69911;BME280;63555;49.920;17.868;2023-11-18T09:42:31;99249.06;;;3.94;88.93
69911;BME280;63555;49.920;17.868;2023-11-18T09:47:36;99252.59;;;3.93;88.41
69911;BME280;63555;49.920;17.868;2023-11-18T09:52:48;99253.69;;;3.87;88.47
69911;BME280;63555;49.920;17.868;2023-11-18T09:57:56;99259.88;;;3.84;88.01
69911;BME280;63555;49.920;17.868;2023-11-18T10:03:00;99259.22;;;3.79;88.38
69911;BME280;63555;49.920;17.868;2023-11-18T10:08:03;99253.16;;;3.79;88.49
69911;BME280;63555;49.920;17.868;2023-11-18T10:13:06;99255.56;;;3.83;88.95
69911;BME280;63555;49.920;17.868;2023-11-18T10:18:22;99259.63;;;3.91;89.01
69911;BME280;63555;49.920;17.868;2023-11-18T10:23:23;99260.16;;;3.99;89.18
69911;BME280;63555;49.920;17.868;2023-11-18T10:28:30;99261.41;;;4.10;88.51
69911;BME280;63555;49.920;17.868;2023-11-18T10:33:36;99265.47;;;4.18;88.10
69911;BME280;63555;49.920;17.868;2023-11-18T10:38:40;99258.22;;;4.24;87.75
69911;BME280;63555;49.920;17.868;2023-11-18T10:44:05;99252.75;;;4.30;87.58
69911;BME280;63555;49.920;17.868;2023-11-18T10:49:05;99249.66;;;4.42;87.58
69911;BME280;63555;49.920;17.868;2023-11-18T10:54:10;99253.09;;;4.63;86.21
69911;BME280;63555;49.920;17.868;2023-11-18T10:59:17;99266.53;;;4.74;84.26
69911;BME280;63555;49.920;17.868;2023-11-18T11:04:18;99271.63;;;4.77;83.83
69911;BME280;63555;49.920;17.868;2023-11-18T11:09:23;99266.41;;;4.77;83.05
69911;BME280;63555;49.920;17.868;2023-11-18T11:14:46;99273.19;;;4.82;83.49
69911;BME280;63555;49.920;17.868;2023-11-18T11:25:15;99293.53;;;4.94;82.96
69911;BME280;63555;49.920;17.868;2023-11-18T11:30:23;99297.00;;;4.94;82.59
69911;BME280;63555;49.920;17.868;2023-11-18T11:35:31;99300.59;;;4.92;82.52
69911;BME280;63555;49.920;17.868;2023-11-18T11:40:33;99296.38;;;4.89;82.43
69911;BME280;63555;49.920;17.868;2023-11-18T11:45:37;99295.66;;;4.86;82.33
69911;BME280;63555;49.920;17.868;2023-11-18T11:50:57;99306.75;;;4.91;82.23
69911;BME280;63555;49.920;17.868;2023-11-18T11:56:04;99310.78;;;4.98;81.96
69911;BME280;63555;49.920;17.868;2023-11-18T12:06:19;99328.31;;;4.96;81.19
69911;BME280;63555;49.920;17.868;2023-11-18T12:11:23;99330.13;;;4.94;81.24
69911;BME280;63555;49.920;17.868;2023-11-18T12:17:05;99331.38;;;4.85;81.02
69911;BME280;63555;49.920;17.868;2023-11-18T12:22:09;99321.41;;;4.74;81.18
69911;BME280;63555;49.920;17.868;2023-11-18T12:27:13;99332.63;;;4.76;81.69
69911;BME280;63555;49.920;17.868;2023-11-18T12:38:30;99349.75;;;4.63;81.40
69911;BME280;63555;49.920;17.868;2023-11-18T12:44:03;99353.59;;;4.55;81.71
69911;BME280;63555;49.920;17.868;2023-11-18T12:49:13;99360.03;;;4.46;81.69
69911;BME280;63555;49.920;17.868;2023-11-18T12:54:15;99361.13;;;4.40;81.48
69911;BME280;63555;49.920;17.868;2023-11-18T12:59:16;99356.09;;;4.36;81.99
69911;BME280;63555;49.920;17.868;2023-11-18T13:04:21;99347.38;;;4.37;81.92
69911;BME280;63555;49.920;17.868;2023-11-18T13:09:22;99358.66;;;4.37;82.22
69911;BME280;63555;49.920;17.868;2023-11-18T13:14:27;99359.44;;;4.39;82.11
69911;BME280;63555;49.920;17.868;2023-11-18T13:19:29;99364.66;;;4.39;82.22
69911;BME280;63555;49.920;17.868;2023-11-18T13:24:30;99371.53;;;4.42;82.16
69911;BME280;63555;49.920;17.868;2023-11-18T13:29:31;99372.44;;;4.41;82.17
69911;BME280;63555;49.920;17.868;2023-11-18T13:34:35;99374.97;;;4.42;82.62
69911;BME280;63555;49.920;17.868;2023-11-18T13:39:38;99370.59;;;4.43;82.21
69911;BME280;63555;49.920;17.868;2023-11-18T13:44:38;99377.72;;;4.39;82.21
69911;BME280;63555;49.920;17.868;2023-11-18T13:49:39;99385.75;;;4.35;82.87
69911;BME280;63555;49.920;17.868;2023-11-18T13:54:40;99391.13;;;4.30;82.37
69911;BME280;63555;49.920;17.868;2023-11-18T13:59:44;99405.13;;;4.28;82.17
69911;BME280;63555;49.920;17.868;2023-11-18T14:04:45;99411.28;;;4.27;82.73
69911;BME280;63555;49.920;17.868;2023-11-18T14:09:47;99418.44;;;4.22;82.47
69911;BME280;63555;49.920;17.868;2023-11-18T14:14:47;99427.53;;;4.11;82.38
69911;BME280;63555;49.920;17.868;2023-11-18T14:19:49;99433.47;;;3.93;83.32
69911;BME280;63555;49.920;17.868;2023-11-18T14:24:52;99438.56;;;3.73;83.95
69911;BME280;63555;49.920;17.868;2023-11-18T14:29:54;99431.25;;;3.59;85.10
69911;BME280;63555;49.920;17.868;2023-11-18T14:34:54;99438.63;;;3.48;84.91
69911;BME280;63555;49.920;17.868;2023-11-18T14:39:56;99431.84;;;3.42;85.45
69911;BME280;63555;49.920;17.868;2023-11-18T14:44:57;99432.75;;;3.41;85.72
69911;BME280;63555;49.920;17.868;2023-11-18T14:49:57;99440.16;;;3.29;85.83
69911;BME280;63555;49.920;17.868;2023-11-18T14:54:58;99450.84;;;3.21;86.23
69911;BME280;63555;49.920;17.868;2023-11-18T14:59:58;99454.63;;;3.12;86.19
69911;BME280;63555;49.920;17.868;2023-11-18T15:04:59;99441.47;;;3.15;86.53
69911;BME280;63555;49.920;17.868;2023-11-18T15:09:59;99437.50;;;3.05;86.46
69911;BME280;63555;49.920;17.868;2023-11-18T15:15:00;99440.03;;;3.07;86.61
69911;BME280;63555;49.920;17.868;2023-11-18T15:20:00;99452.16;;;3.08;86.85
69911;BME280;63555;49.920;17.868;2023-11-18T15:25:00;99456.38;;;3.12;86.44
69911;BME280;63555;49.920;17.868;2023-11-18T15:30:01;99471.00;;;3.16;86.40
69911;BME280;63555;49.920;17.868;2023-11-18T15:35:04;99470.94;;;3.17;86.38
69911;BME280;63555;49.920;17.868;2023-11-18T15:40:09;99474.13;;;3.26;86.28
69911;BME280;63555;49.920;17.868;2023-11-18T15:45:11;99477.44;;;3.31;86.24
69911;BME280;63555;49.920;17.868;2023-11-18T15:50:13;99483.28;;;3.37;86.42
69911;BME280;63555;49.920;17.868;2023-11-18T15:55:16;99460.41;;;3.45;85.96
69911;BME280;63555;49.920;17.868;2023-11-18T16:00:19;99468.94;;;3.50;85.81
69911;BME280;63555;49.920;17.868;2023-11-18T16:05:22;99463.69;;;3.52;85.73
69911;BME280;63555;49.920;17.868;2023-11-18T16:10:24;99469.78;;;3.51;85.63
69911;BME280;63555;49.920;17.868;2023-11-18T16:15:26;99469.00;;;3.49;85.78
69911;BME280;63555;49.920;17.868;2023-11-18T16:20:28;99476.03;;;3.47;85.81
69911;BME280;63555;49.920;17.868;2023-11-18T16:25:32;99469.75;;;3.53;86.01
69911;BME280;63555;49.920;17.868;2023-11-18T16:30:34;99475.13;;;3.48;86.09
69911;BME280;63555;49.920;17.868;2023-11-18T16:35:34;99488.28;;;3.43;86.47
69911;BME280;63555;49.920;17.868;2023-11-18T16:40:36;99490.78;;;3.46;86.18
69911;BME280;63555;49.920;17.868;2023-11-18T16:45:36;99491.91;;;3.39;85.97
69911;BME280;63555;49.920;17.868;2023-11-18T16:50:37;99486.09;;;3.31;86.33
69911;BME280;63555;49.920;17.868;2023-11-18T16:55:38;99501.97;;;3.25;86.59
69911;BME280;63555;49.920;17.868;2023-11-18T17:00:38;99505.47;;;3.24;86.19
69911;BME280;63555;49.920;17.868;2023-11-18T17:05:41;99495.19;;;3.19;86.43
69911;BME280;63555;49.920;17.868;2023-11-18T17:10:41;99494.44;;;3.16;86.92
69911;BME280;63555;49.920;17.868;2023-11-18T17:15:42;99486.63;;;3.16;87.01
69911;BME280;63555;49.920;17.868;2023-11-18T17:20:43;99495.47;;;3.12;86.83
69911;BME280;63555;49.920;17.868;2023-11-18T17:25:43;99502.38;;;3.13;86.58
69911;BME280;63555;49.920;17.868;2023-11-18T17:30:43;99497.97;;;3.15;86.80
69911;BME280;63555;49.920;17.868;2023-11-18T17:35:44;99491.84;;;3.16;86.49
69911;BME280;63555;49.920;17.868;2023-11-18T17:40:44;99490.19;;;3.13;86.42
69911;BME280;63555;49.920;17.868;2023-11-18T17:45:45;99481.56;;;3.11;86.58
69911;BME280;63555;49.920;17.868;2023-11-18T17:50:46;99480.09;;;3.04;86.46
69911;BME280;63555;49.920;17.868;2023-11-18T17:55:47;99473.28;;;3.00;86.34
69911;BME280;63555;49.920;17.868;2023-11-18T18:00:47;99481.94;;;3.01;86.62
69911;BME280;63555;49.920;17.868;2023-11-18T18:05:48;99481.94;;;3.01;86.59
69911;BME280;63555;49.920;17.868;2023-11-18T18:10:48;99480.03;;;3.06;87.02
69911;BME280;63555;49.920;17.868;2023-11-18T18:15:49;99478.06;;;3.12;86.42
69911;BME280;63555;49.920;17.868;2023-11-18T18:20:49;99478.00;;;3.14;87.03
69911;BME280;63555;49.920;17.868;2023-11-18T18:25:49;99469.19;;;3.18;86.73
69911;BME280;63555;49.920;17.868;2023-11-18T18:30:50;99476.84;;;3.23;87.02
69911;BME280;63555;49.920;17.868;2023-11-18T18:35:50;99479.34;;;3.26;87.17
69911;BME280;63555;49.920;17.868;2023-11-18T18:40:50;99466.16;;;3.30;86.65
69911;BME280;63555;49.920;17.868;2023-11-18T18:45:51;99458.28;;;3.32;86.69
69911;BME280;63555;49.920;17.868;2023-11-18T18:50:51;99468.72;;;3.32;86.87
69911;BME280;63555;49.920;17.868;2023-11-18T18:55:51;99463.50;;;3.32;87.04
69911;BME280;63555;49.920;17.868;2023-11-18T19:00:52;99449.63;;;3.31;87.07
69911;BME280;63555;49.920;17.868;2023-11-18T19:05:52;99447.91;;;3.30;87.21
69911;BME280;63555;49.920;17.868;2023-11-18T19:10:52;99430.75;;;3.25;86.87
69911;BME280;63555;49.920;17.868;2023-11-18T19:15:53;99443.03;;;3.21;86.93
69911;BME280;63555;49.920;17.868;2023-11-18T19:20:53;99419.78;;;3.15;86.71
69911;BME280;63555;49.920;17.868;2023-11-18T19:25:54;99408.72;;;3.08;86.40
69911;BME280;63555;49.920;17.868;2023-11-18T19:30:55;99427.38;;;2.96;86.42
69911;BME280;63555;49.920;17.868;2023-11-18T19:35:55;99431.09;;;2.89;86.59
69911;BME280;63555;49.920;17.868;2023-11-18T19:40:56;99406.00;;;2.86;87.23
69911;BME280;63555;49.920;17.868;2023-11-18T19:45:57;99411.13;;;2.90;87.13
69911;BME280;63555;49.920;17.868;2023-11-18T19:50:57;99411.97;;;2.90;87.16
69911;BME280;63555;49.920;17.868;2023-11-18T19:55:57;99440.63;;;2.90;87.31
69911;BME280;63555;49.920;17.868;2023-11-18T20:00:58;99421.53;;;2.90;87.27
69911;BME280;63555;49.920;17.868;2023-11-18T20:05:58;99424.28;;;2.85;87.36
69911;BME280;63555;49.920;17.868;2023-11-18T20:10:59;99433.13;;;2.81;87.47
69911;BME280;63555;49.920;17.868;2023-11-18T20:15:59;99421.00;;;2.80;87.49
69911;BME280;63555;49.920;17.868;2023-11-18T20:20:59;99412.59;;;2.72;87.29
69911;BME280;63555;49.920;17.868;2023-11-18T20:26:00;99405.84;;;2.66;87.57
69911;BME280;63555;49.920;17.868;2023-11-18T20:31:00;99399.06;;;2.61;87.69
69911;BME280;63555;49.920;17.868;2023-11-18T20:36:01;99394.78;;;2.58;87.84
69911;BME280;63555;49.920;17.868;2023-11-18T20:41:01;99398.34;;;2.55;87.54
69911;BME280;63555;49.920;17.868;2023-11-18T20:46:02;99388.00;;;2.54;87.81
69911;BME280;63555;49.920;17.868;2023-11-18T20:51:02;99364.72;;;2.49;87.54
69911;BME280;63555;49.920;17.868;2023-11-18T20:56:05;99373.47;;;2.47;88.20
69911;BME280;63555;49.920;17.868;2023-11-18T21:01:06;99369.28;;;2.43;88.07
69911;BME280;63555;49.920;17.868;2023-11-18T21:06:10;99365.16;;;2.36;87.50
69911;BME280;63555;49.920;17.868;2023-11-18T21:11:11;99353.16;;;2.32;87.74
69911;BME280;63555;49.920;17.868;2023-11-18T21:16:11;99339.41;;;2.28;87.60
69911;BME280;63555;49.920;17.868;2023-11-18T21:21:13;99332.69;;;2.21;87.63
69911;BME280;63555;49.920;17.868;2023-11-18T21:26:13;99318.13;;;2.15;87.39
69911;BME280;63555;49.920;17.868;2023-11-18T21:31:14;99334.00;;;2.08;86.52
69911;BME280;63555;49.920;17.868;2023-11-18T21:36:16;99343.09;;;1.95;84.78
69911;BME280;63555;49.920;17.868;2023-11-18T21:41:17;99315.97;;;1.75;84.35
69911;BME280;63555;49.920;17.868;2023-11-18T21:46:17;99312.94;;;1.59;83.34
69911;BME280;63555;49.920;17.868;2023-11-18T21:51:18;99309.16;;;1.42;83.19
69911;BME280;63555;49.920;17.868;2023-11-18T21:56:18;99313.97;;;1.26;82.74
69911;BME280;63555;49.920;17.868;2023-11-18T22:01:20;99314.41;;;1.11;82.21
69911;BME280;63555;49.920;17.868;2023-11-18T22:06:21;99320.03;;;0.95;82.28
69911;BME280;63555;49.920;17.868;2023-11-18T22:11:22;99318.66;;;0.81;82.75
69911;BME280;63555;49.920;17.868;2023-11-18T22:16:24;99321.50;;;0.72;83.03
69911;BME280;63555;49.920;17.868;2023-11-18T22:21:28;99294.03;;;0.64;83.49
69911;BME280;63555;49.920;17.868;2023-11-18T22:26:28;99286.41;;;0.58;84.16
69911;BME280;63555;49.920;17.868;2023-11-18T22:31:29;99287.34;;;0.56;83.90
69911;BME280;63555;49.920;17.868;2023-11-18T22:36:30;99276.25;;;0.51;83.79
69911;BME280;63555;49.920;17.868;2023-11-18T22:41:31;99271.22;;;0.45;83.83
69911;BME280;63555;49.920;17.868;2023-11-18T22:46:32;99274.81;;;0.39;84.02
69911;BME280;63555;49.920;17.868;2023-11-18T22:51:33;99264.66;;;0.31;83.85
69911;BME280;63555;49.920;17.868;2023-11-18T22:56:33;99276.88;;;0.26;84.70
69911;BME280;63555;49.920;17.868;2023-11-18T23:01:34;99258.81;;;0.23;84.18
69911;BME280;63555;49.920;17.868;2023-11-18T23:06:37;99274.44;;;0.20;84.47
69911;BME280;63555;49.920;17.868;2023-11-18T23:11:39;99251.16;;;0.19;84.88
69911;BME280;63555;49.920;17.868;2023-11-18T23:16:40;99243.31;;;0.20;85.54
69911;BME280;63555;49.920;17.868;2023-11-18T23:21:40;99238.06;;;0.23;87.21
69911;BME280;63555;49.920;17.868;2023-11-18T23:26:40;99249.13;;;0.30;87.43
69911;BME280;63555;49.920;17.868;2023-11-18T23:31:41;99246.28;;;0.39;87.38
69911;BME280;63555;49.920;17.868;2023-11-18T23:36:42;99245.22;;;0.46;88.40
69911;BME280;63555;49.920;17.868;2023-11-18T23:41:43;99233.81;;;0.52;88.33
69911;BME280;63555;49.920;17.868;2023-11-18T23:46:45;99230.34;;;0.53;88.59
69911;BME280;63555;49.920;17.868;2023-11-18T23:51:46;99207.00;;;0.53;88.68
69911;BME280;63555;49.920;17.868;2023-11-18T23:56:46;99202.81;;;0.47;88.60
